sensor_id;sensor_type;location;lat;lon;timestamp;pressure;altitude;pressure_sealevel;temperature
41940;BMP180;23057;48.554;14.454;2023-01-15T00:00:38;93091.00;;;12.90
41940;BMP180;23057;48.554;14.454;2023-01-15T00:03:08;93090.00;;;12.90
41940;BMP180;23057;48.554;14.454;2023-01-15T00:05:39;93081.00;;;12.90
41940;BMP180;23057;48.554;14.454;2023-01-15T00:08:10;93076.00;;;12.90
41940;BMP180;23057;48.554;14.454;2023-01-15T00:10:41;93064.00;;;13.00
41940;BMP180;23057;48.554;14.454;2023-01-15T00:13:11;93070.00;;;13.00
41940;BMP180;23057;48.554;14.454;2023-01-15T00:15:42;93065.00;;;13.10
41940;BMP180;23057;48.554;14.454;2023-01-15T00:18:13;93058.00;;;13.10
41940;BMP180;23057;48.554;14.454;2023-01-15T00:20:44;93086.00;;;13.00
41940;BMP180;23057;48.554;14.454;2023-01-15T00:23:14;93070.00;;;12.90
41940;BMP180;23057;48.554;14.454;2023-01-15T00:26:08;93044.00;;;12.80
41940;BMP180;23057;48.554;14.454;2023-01-15T00:29:02;93056.00;;;12.80
41940;BMP180;23057;48.554;14.454;2023-01-15T00:31:34;93044.00;;;12.70
41940;BMP180;23057;48.554;14.454;2023-01-15T00:34:05;93046.00;;;12.70
41940;BMP180;23057;48.554;14.454;2023-01-15T00:36:36;93044.00;;;12.80
41940;BMP180;23057;48.554;14.454;2023-01-15T00:39:07;93049.00;;;12.80
41940;BMP180;23057;48.554;14.454;2023-01-15T00:41:37;93046.00;;;12.80
41940;BMP180;23057;48.554;14.454;2023-01-15T00:44:08;93038.00;;;12.80
41940;BMP180;23057;48.554;14.454;2023-01-15T00:46:39;93032.00;;;12.90
41940;BMP180;23057;48.554;14.454;2023-01-15T00:49:11;93026.00;;;13.00
41940;BMP180;23057;48.554;14.454;2023-01-15T00:51:41;93036.00;;;13.10
41940;BMP180;23057;48.554;14.454;2023-01-15T00:54:12;93030.00;;;13.20
41940;BMP180;23057;48.554;14.454;2023-01-15T00:56:43;93033.00;;;13.30
41940;BMP180;23057;48.554;14.454;2023-01-15T00:59:14;93024.00;;;13.30
41940;BMP180;23057;48.554;14.454;2023-01-15T01:01:45;93026.00;;;13.30
41940;BMP180;23057;48.554;14.454;2023-01-15T01:04:16;93029.00;;;13.40
41940;BMP180;23057;48.554;14.454;2023-01-15T01:06:47;93035.00;;;13.40
41940;BMP180;23057;48.554;14.454;2023-01-15T01:09:17;93030.00;;;13.50
41940;BMP180;23057;48.554;14.454;2023-01-15T01:11:48;93030.00;;;13.50
41940;BMP180;23057;48.554;14.454;2023-01-15T01:14:19;93019.00;;;13.50
41940;BMP180;23057;48.554;14.454;2023-01-15T01:16:50;93014.00;;;13.50
41940;BMP180;23057;48.554;14.454;2023-01-15T01:19:22;93013.00;;;13.50
41940;BMP180;23057;48.554;14.454;2023-01-15T01:21:54;93005.00;;;13.50
41940;BMP180;23057;48.554;14.454;2023-01-15T01:24:24;93007.00;;;13.50
41940;BMP180;23057;48.554;14.454;2023-01-15T01:26:55;93001.00;;;13.40
41940;BMP180;23057;48.554;14.454;2023-01-15T01:29:26;92993.00;;;13.40
41940;BMP180;23057;48.554;14.454;2023-01-15T01:31:57;92990.00;;;13.30
41940;BMP180;23057;48.554;14.454;2023-01-15T01:34:28;93000.00;;;13.20
41940;BMP180;23057;48.554;14.454;2023-01-15T01:36:59;93002.00;;;13.20
41940;BMP180;23057;48.554;14.454;2023-01-15T01:39:30;92983.00;;;13.10
41940;BMP180;23057;48.554;14.454;2023-01-15T01:42:00;92983.00;;;13.10
41940;BMP180;23057;48.554;14.454;2023-01-15T01:47:07;92978.00;;;13.00
41940;BMP180;23057;48.554;14.454;2023-01-15T01:49:42;92972.00;;;13.00
41940;BMP180;23057;48.554;14.454;2023-01-15T01:52:20;92982.00;;;13.00
41940;BMP180;23057;48.554;14.454;2023-01-15T01:54:56;92968.00;;;12.90
41940;BMP180;23057;48.554;14.454;2023-01-15T01:57:27;92969.00;;;12.90
41940;BMP180;23057;48.554;14.454;2023-01-15T02:00:00;92978.00;;;12.90
41940;BMP180;23057;48.554;14.454;2023-01-15T02:02:52;92974.00;;;12.90
41940;BMP180;23057;48.554;14.454;2023-01-15T02:05:32;92960.00;;;12.90
41940;BMP180;23057;48.554;14.454;2023-01-15T02:08:07;92953.00;;;12.90
41940;BMP180;23057;48.554;14.454;2023-01-15T02:10:37;92963.00;;;13.00
41940;BMP180;23057;48.554;14.454;2023-01-15T02:13:19;92954.00;;;12.90
41940;BMP180;23057;48.554;14.454;2023-01-15T02:25:17;92943.00;;;12.90
41940;BMP180;23057;48.554;14.454;2023-01-15T02:28:03;92943.00;;;12.90
41940;BMP180;23057;48.554;14.454;2023-01-15T02:30:51;92944.00;;;12.90
41940;BMP180;23057;48.554;14.454;2023-01-15T02:33:33;92945.00;;;12.90
41940;BMP180;23057;48.554;14.454;2023-01-15T02:36:12;92948.00;;;12.80
41940;BMP180;23057;48.554;14.454;2023-01-15T02:38:47;92938.00;;;12.80
41940;BMP180;23057;48.554;14.454;2023-01-15T02:41:25;92924.00;;;12.80
41940;BMP180;23057;48.554;14.454;2023-01-15T02:44:02;92915.00;;;12.70
41940;BMP180;23057;48.554;14.454;2023-01-15T02:46:38;92919.00;;;12.70
41940;BMP180;23057;48.554;14.454;2023-01-15T02:49:14;92915.00;;;12.70
41940;BMP180;23057;48.554;14.454;2023-01-15T02:51:53;92906.00;;;12.60
41940;BMP180;23057;48.554;14.454;2023-01-15T02:54:36;92899.00;;;12.50
41940;BMP180;23057;48.554;14.454;2023-01-15T02:57:33;92904.00;;;12.40
41940;BMP180;23057;48.554;14.454;2023-01-15T03:00:10;92919.00;;;12.40
41940;BMP180;23057;48.554;14.454;2023-01-15T03:06:10;92912.00;;;12.30
41940;BMP180;23057;48.554;14.454;2023-01-15T03:08:47;92914.00;;;12.30
41940;BMP180;23057;48.554;14.454;2023-01-15T03:11:20;92900.00;;;12.40
41940;BMP180;23057;48.554;14.454;2023-01-15T03:14:01;92905.00;;;12.40
41940;BMP180;23057;48.554;14.454;2023-01-15T03:16:51;92891.00;;;12.40
41940;BMP180;23057;48.554;14.454;2023-01-15T03:19:28;92888.00;;;12.40
41940;BMP180;23057;48.554;14.454;2023-01-15T03:22:04;92906.00;;;12.50
41940;BMP180;23057;48.554;14.454;2023-01-15T03:25:03;92889.00;;;12.50
41940;BMP180;23057;48.554;14.454;2023-01-15T03:27:35;92888.00;;;12.50
41940;BMP180;23057;48.554;14.454;2023-01-15T03:32:43;92880.00;;;12.60
41940;BMP180;23057;48.554;14.454;2023-01-15T03:38:23;92885.00;;;12.70
41940;BMP180;23057;48.554;14.454;2023-01-15T03:41:24;92880.00;;;12.70
41940;BMP180;23057;48.554;14.454;2023-01-15T03:49:43;92888.00;;;12.70
41940;BMP180;23057;48.554;14.454;2023-01-15T03:52:27;92878.00;;;12.70
41940;BMP180;23057;48.554;14.454;2023-01-15T03:55:11;92884.00;;;12.60
41940;BMP180;23057;48.554;14.454;2023-01-15T03:58:08;92887.00;;;12.60
41940;BMP180;23057;48.554;14.454;2023-01-15T04:00:48;92869.00;;;12.50
41940;BMP180;23057;48.554;14.454;2023-01-15T04:03:22;92879.00;;;12.50
41940;BMP180;23057;48.554;14.454;2023-01-15T04:05:58;92869.00;;;12.50
41940;BMP180;23057;48.554;14.454;2023-01-15T04:08:36;92884.00;;;12.50
41940;BMP180;23057;48.554;14.454;2023-01-15T04:11:10;92878.00;;;12.50
41940;BMP180;23057;48.554;14.454;2023-01-15T04:13:40;92874.00;;;12.50
41940;BMP180;23057;48.554;14.454;2023-01-15T04:16:11;92884.00;;;12.60
41940;BMP180;23057;48.554;14.454;2023-01-15T04:18:42;92889.00;;;12.60
41940;BMP180;23057;48.554;14.454;2023-01-15T04:21:12;92881.00;;;12.60
41940;BMP180;23057;48.554;14.454;2023-01-15T04:23:43;92874.00;;;12.60
41940;BMP180;23057;48.554;14.454;2023-01-15T04:26:15;92875.00;;;12.70
41940;BMP180;23057;48.554;14.454;2023-01-15T04:28:47;92887.00;;;12.70
41940;BMP180;23057;48.554;14.454;2023-01-15T04:31:17;92884.00;;;12.70
41940;BMP180;23057;48.554;14.454;2023-01-15T04:33:49;92884.00;;;12.70
41940;BMP180;23057;48.554;14.454;2023-01-15T04:36:19;92868.00;;;12.80
41940;BMP180;23057;48.554;14.454;2023-01-15T04:38:50;92861.00;;;12.70
41940;BMP180;23057;48.554;14.454;2023-01-15T04:41:21;92856.00;;;12.70
41940;BMP180;23057;48.554;14.454;2023-01-15T04:44:10;92845.00;;;12.70
41940;BMP180;23057;48.554;14.454;2023-01-15T04:46:45;92844.00;;;12.80
41940;BMP180;23057;48.554;14.454;2023-01-15T04:49:17;92825.00;;;12.80
41940;BMP180;23057;48.554;14.454;2023-01-15T04:51:47;92822.00;;;12.80
41940;BMP180;23057;48.554;14.454;2023-01-15T04:54:18;92807.00;;;12.80
41940;BMP180;23057;48.554;14.454;2023-01-15T04:56:51;92814.00;;;12.80
41940;BMP180;23057;48.554;14.454;2023-01-15T04:59:25;92805.00;;;12.80
41940;BMP180;23057;48.554;14.454;2023-01-15T05:01:56;92797.00;;;12.80
41940;BMP180;23057;48.554;14.454;2023-01-15T05:04:27;92791.00;;;12.70
41940;BMP180;23057;48.554;14.454;2023-01-15T05:07:00;92774.00;;;12.70
41940;BMP180;23057;48.554;14.454;2023-01-15T05:09:32;92769.00;;;12.70
41940;BMP180;23057;48.554;14.454;2023-01-15T05:12:03;92762.00;;;12.80
41940;BMP180;23057;48.554;14.454;2023-01-15T05:14:34;92757.00;;;12.80
41940;BMP180;23057;48.554;14.454;2023-01-15T05:17:04;92752.00;;;12.80
41940;BMP180;23057;48.554;14.454;2023-01-15T05:19:35;92742.00;;;12.80
41940;BMP180;23057;48.554;14.454;2023-01-15T05:22:06;92742.00;;;12.80
41940;BMP180;23057;48.554;14.454;2023-01-15T05:24:37;92724.00;;;12.80
41940;BMP180;23057;48.554;14.454;2023-01-15T05:27:08;92717.00;;;12.80
41940;BMP180;23057;48.554;14.454;2023-01-15T05:29:39;92713.00;;;12.80
41940;BMP180;23057;48.554;14.454;2023-01-15T05:32:10;92704.00;;;12.80
41940;BMP180;23057;48.554;14.454;2023-01-15T05:34:40;92712.00;;;12.70
41940;BMP180;23057;48.554;14.454;2023-01-15T05:37:11;92697.00;;;12.60
41940;BMP180;23057;48.554;14.454;2023-01-15T05:39:42;92698.00;;;12.60
41940;BMP180;23057;48.554;14.454;2023-01-15T05:42:13;92705.00;;;12.60
41940;BMP180;23057;48.554;14.454;2023-01-15T05:44:43;92708.00;;;12.60
41940;BMP180;23057;48.554;14.454;2023-01-15T05:47:14;92708.00;;;12.60
41940;BMP180;23057;48.554;14.454;2023-01-15T05:49:45;92701.00;;;12.50
41940;BMP180;23057;48.554;14.454;2023-01-15T05:52:17;92699.00;;;12.50
41940;BMP180;23057;48.554;14.454;2023-01-15T05:54:48;92700.00;;;12.50
41940;BMP180;23057;48.554;14.454;2023-01-15T05:57:19;92704.00;;;12.50
41940;BMP180;23057;48.554;14.454;2023-01-15T05:59:50;92706.00;;;12.40
41940;BMP180;23057;48.554;14.454;2023-01-15T06:02:22;92698.00;;;12.40
41940;BMP180;23057;48.554;14.454;2023-01-15T06:04:53;92704.00;;;12.40
41940;BMP180;23057;48.554;14.454;2023-01-15T06:07:24;92706.00;;;12.40
41940;BMP180;23057;48.554;14.454;2023-01-15T06:09:55;92706.00;;;12.30
41940;BMP180;23057;48.554;14.454;2023-01-15T06:12:25;92700.00;;;12.30
41940;BMP180;23057;48.554;14.454;2023-01-15T06:14:56;92693.00;;;12.20
41940;BMP180;23057;48.554;14.454;2023-01-15T06:17:27;92691.00;;;12.20
41940;BMP180;23057;48.554;14.454;2023-01-15T06:19:57;92688.00;;;12.20
41940;BMP180;23057;48.554;14.454;2023-01-15T06:22:28;92690.00;;;12.10
41940;BMP180;23057;48.554;14.454;2023-01-15T06:24:59;92686.00;;;12.00
41940;BMP180;23057;48.554;14.454;2023-01-15T06:27:29;92678.00;;;12.00
41940;BMP180;23057;48.554;14.454;2023-01-15T06:30:00;92686.00;;;12.00
41940;BMP180;23057;48.554;14.454;2023-01-15T06:32:31;92681.00;;;12.00
41940;BMP180;23057;48.554;14.454;2023-01-15T06:35:02;92664.00;;;12.00
41940;BMP180;23057;48.554;14.454;2023-01-15T06:37:33;92663.00;;;12.00
41940;BMP180;23057;48.554;14.454;2023-01-15T06:40:04;92669.00;;;11.90
41940;BMP180;23057;48.554;14.454;2023-01-15T06:42:35;92661.00;;;11.90
41940;BMP180;23057;48.554;14.454;2023-01-15T06:45:24;92651.00;;;11.90
41940;BMP180;23057;48.554;14.454;2023-01-15T06:48:13;92669.00;;;11.90
41940;BMP180;23057;48.554;14.454;2023-01-15T06:50:44;92669.00;;;11.90
41940;BMP180;23057;48.554;14.454;2023-01-15T06:53:15;92661.00;;;11.90
41940;BMP180;23057;48.554;14.454;2023-01-15T06:55:46;92662.00;;;12.00
41940;BMP180;23057;48.554;14.454;2023-01-15T06:58:18;92663.00;;;12.00
41940;BMP180;23057;48.554;14.454;2023-01-15T07:00:51;92665.00;;;12.00
41940;BMP180;23057;48.554;14.454;2023-01-15T07:03:25;92657.00;;;12.00
41940;BMP180;23057;48.554;14.454;2023-01-15T07:05:56;92651.00;;;12.00
41940;BMP180;23057;48.554;14.454;2023-01-15T07:08:27;92654.00;;;12.00
41940;BMP180;23057;48.554;14.454;2023-01-15T07:11:04;92649.00;;;12.00
41940;BMP180;23057;48.554;14.454;2023-01-15T07:13:36;92643.00;;;12.10
41940;BMP180;23057;48.554;14.454;2023-01-15T07:16:07;92630.00;;;12.20
41940;BMP180;23057;48.554;14.454;2023-01-15T07:18:56;92649.00;;;12.20
41940;BMP180;23057;48.554;14.454;2023-01-15T07:21:26;92645.00;;;12.30
41940;BMP180;23057;48.554;14.454;2023-01-15T07:23:58;92647.00;;;12.30
41940;BMP180;23057;48.554;14.454;2023-01-15T07:26:29;92645.00;;;12.40
41940;BMP180;23057;48.554;14.454;2023-01-15T07:29:00;92643.00;;;12.40
41940;BMP180;23057;48.554;14.454;2023-01-15T07:31:30;92651.00;;;12.40
41940;BMP180;23057;48.554;14.454;2023-01-15T07:34:02;92648.00;;;12.40
41940;BMP180;23057;48.554;14.454;2023-01-15T07:36:33;92659.00;;;12.50
41940;BMP180;23057;48.554;14.454;2023-01-15T07:39:06;92651.00;;;12.50
41940;BMP180;23057;48.554;14.454;2023-01-15T07:41:38;92648.00;;;12.50
41940;BMP180;23057;48.554;14.454;2023-01-15T07:44:27;92657.00;;;12.50
41940;BMP180;23057;48.554;14.454;2023-01-15T07:47:22;92674.00;;;12.50
41940;BMP180;23057;48.554;14.454;2023-01-15T07:50:16;92663.00;;;12.60
41940;BMP180;23057;48.554;14.454;2023-01-15T07:52:52;92677.00;;;12.60
41940;BMP180;23057;48.554;14.454;2023-01-15T07:55:22;92684.00;;;12.70
41940;BMP180;23057;48.554;14.454;2023-01-15T07:57:53;92689.00;;;12.70
41940;BMP180;23057;48.554;14.454;2023-01-15T08:00:24;92692.00;;;12.70
41940;BMP180;23057;48.554;14.454;2023-01-15T08:02:55;92686.00;;;12.80
41940;BMP180;23057;48.554;14.454;2023-01-15T08:05:26;92700.00;;;12.80
41940;BMP180;23057;48.554;14.454;2023-01-15T08:07:57;92699.00;;;12.80
41940;BMP180;23057;48.554;14.454;2023-01-15T08:10:27;92692.00;;;12.90
41940;BMP180;23057;48.554;14.454;2023-01-15T08:12:58;92692.00;;;12.90
41940;BMP180;23057;48.554;14.454;2023-01-15T08:15:47;92696.00;;;12.90
41940;BMP180;23057;48.554;14.454;2023-01-15T08:18:18;92689.00;;;12.90
41940;BMP180;23057;48.554;14.454;2023-01-15T08:20:49;92679.00;;;12.90
41940;BMP180;23057;48.554;14.454;2023-01-15T08:23:19;92678.00;;;12.90
41940;BMP180;23057;48.554;14.454;2023-01-15T08:25:50;92680.00;;;12.90
41940;BMP180;23057;48.554;14.454;2023-01-15T08:28:21;92689.00;;;13.00
41940;BMP180;23057;48.554;14.454;2023-01-15T08:30:52;92668.00;;;13.00
41940;BMP180;23057;48.554;14.454;2023-01-15T08:33:23;92667.00;;;13.00
41940;BMP180;23057;48.554;14.454;2023-01-15T08:35:53;92667.00;;;13.00
41940;BMP180;23057;48.554;14.454;2023-01-15T08:38:24;92657.00;;;13.10
41940;BMP180;23057;48.554;14.454;2023-01-15T08:40:55;92648.00;;;13.20
41940;BMP180;23057;48.554;14.454;2023-01-15T08:43:31;92648.00;;;13.20
41940;BMP180;23057;48.554;14.454;2023-01-15T08:46:05;92655.00;;;13.30
41940;BMP180;23057;48.554;14.454;2023-01-15T08:48:35;92646.00;;;13.40
41940;BMP180;23057;48.554;14.454;2023-01-15T08:51:08;92638.00;;;13.40
41940;BMP180;23057;48.554;14.454;2023-01-15T08:53:40;92631.00;;;13.50
41940;BMP180;23057;48.554;14.454;2023-01-15T08:56:16;92634.00;;;13.60
41940;BMP180;23057;48.554;14.454;2023-01-15T08:58:48;92626.00;;;13.60
41940;BMP180;23057;48.554;14.454;2023-01-15T09:01:19;92619.00;;;13.70
41940;BMP180;23057;48.554;14.454;2023-01-15T09:03:49;92609.00;;;13.70
41940;BMP180;23057;48.554;14.454;2023-01-15T09:06:20;92608.00;;;13.80
41940;BMP180;23057;48.554;14.454;2023-01-15T09:08:51;92609.00;;;13.80
41940;BMP180;23057;48.554;14.454;2023-01-15T09:11:22;92608.00;;;13.90
41940;BMP180;23057;48.554;14.454;2023-01-15T09:13:53;92616.00;;;13.90
41940;BMP180;23057;48.554;14.454;2023-01-15T09:16:23;92620.00;;;13.90
41940;BMP180;23057;48.554;14.454;2023-01-15T09:18:57;92616.00;;;14.00
41940;BMP180;23057;48.554;14.454;2023-01-15T09:21:28;92622.00;;;14.00
41940;BMP180;23057;48.554;14.454;2023-01-15T09:23:58;92616.00;;;14.00
41940;BMP180;23057;48.554;14.454;2023-01-15T09:26:32;92615.00;;;14.00
41940;BMP180;23057;48.554;14.454;2023-01-15T09:29:06;92613.00;;;14.10
41940;BMP180;23057;48.554;14.454;2023-01-15T09:31:38;92606.00;;;14.10
41940;BMP180;23057;48.554;14.454;2023-01-15T09:34:09;92609.00;;;14.10
41940;BMP180;23057;48.554;14.454;2023-01-15T09:36:40;92603.00;;;14.10
41940;BMP180;23057;48.554;14.454;2023-01-15T09:39:11;92590.00;;;14.10
41940;BMP180;23057;48.554;14.454;2023-01-15T09:42:25;92608.00;;;14.10
41940;BMP180;23057;48.554;14.454;2023-01-15T09:45:25;92595.00;;;14.10
41940;BMP180;23057;48.554;14.454;2023-01-15T09:48:32;92604.00;;;14.00
41940;BMP180;23057;48.554;14.454;2023-01-15T09:57:26;92596.00;;;14.00
41940;BMP180;23057;48.554;14.454;2023-01-15T09:59:59;92604.00;;;14.10
41940;BMP180;23057;48.554;14.454;2023-01-15T10:02:38;92607.00;;;14.10
41940;BMP180;23057;48.554;14.454;2023-01-15T10:08:13;92605.00;;;14.10
41940;BMP180;23057;48.554;14.454;2023-01-15T10:10:55;92599.00;;;14.20
41940;BMP180;23057;48.554;14.454;2023-01-15T10:13:42;92593.00;;;14.20
41940;BMP180;23057;48.554;14.454;2023-01-15T10:16:21;92586.00;;;14.20
41940;BMP180;23057;48.554;14.454;2023-01-15T10:18:55;92583.00;;;14.20
41940;BMP180;23057;48.554;14.454;2023-01-15T10:24:23;92588.00;;;14.30
41940;BMP180;23057;48.554;14.454;2023-01-15T10:27:16;92579.00;;;14.40
41940;BMP180;23057;48.554;14.454;2023-01-15T10:30:05;92568.00;;;14.50
41940;BMP180;23057;48.554;14.454;2023-01-15T10:32:46;92565.00;;;14.50
41940;BMP180;23057;48.554;14.454;2023-01-15T10:35:35;92554.00;;;14.60
41940;BMP180;23057;48.554;14.454;2023-01-15T10:38:36;92567.00;;;14.60
41940;BMP180;23057;48.554;14.454;2023-01-15T10:41:34;92556.00;;;14.70
41940;BMP180;23057;48.554;14.454;2023-01-15T10:44:39;92547.00;;;14.70
41940;BMP180;23057;48.554;14.454;2023-01-15T10:47:13;92539.00;;;14.80
41940;BMP180;23057;48.554;14.454;2023-01-15T10:49:49;92540.00;;;14.80
41940;BMP180;23057;48.554;14.454;2023-01-15T10:52:35;92536.00;;;14.90
41940;BMP180;23057;48.554;14.454;2023-01-15T10:55:33;92529.00;;;14.90
41940;BMP180;23057;48.554;14.454;2023-01-15T11:00:57;92539.00;;;15.00
41940;BMP180;23057;48.554;14.454;2023-01-15T11:03:38;92525.00;;;15.00
41940;BMP180;23057;48.554;14.454;2023-01-15T11:06:14;92530.00;;;15.00
41940;BMP180;23057;48.554;14.454;2023-01-15T11:08:52;92522.00;;;15.10
41940;BMP180;23057;48.554;14.454;2023-01-15T11:14:17;92527.00;;;15.20
41940;BMP180;23057;48.554;14.454;2023-01-15T11:17:12;92509.00;;;15.20
41940;BMP180;23057;48.554;14.454;2023-01-15T11:20:11;92507.00;;;15.40
41940;BMP180;23057;48.554;14.454;2023-01-15T11:22:50;92512.00;;;15.40
41940;BMP180;23057;48.554;14.454;2023-01-15T11:25:27;92512.00;;;15.50
41940;BMP180;23057;48.554;14.454;2023-01-15T11:28:04;92502.00;;;15.50
41940;BMP180;23057;48.554;14.454;2023-01-15T11:30:37;92512.00;;;15.60
41940;BMP180;23057;48.554;14.454;2023-01-15T11:33:23;92502.00;;;15.60
41940;BMP180;23057;48.554;14.454;2023-01-15T11:36:00;92501.00;;;15.60
41940;BMP180;23057;48.554;14.454;2023-01-15T11:38:45;92495.00;;;15.60
41940;BMP180;23057;48.554;14.454;2023-01-15T11:41:26;92483.00;;;15.60
41940;BMP180;23057;48.554;14.454;2023-01-15T11:44:22;92490.00;;;15.60
41940;BMP180;23057;48.554;14.454;2023-01-15T11:47:13;92487.00;;;15.60
41940;BMP180;23057;48.554;14.454;2023-01-15T11:50:18;92495.00;;;15.60
41940;BMP180;23057;48.554;14.454;2023-01-15T11:53:14;92512.00;;;15.60
41940;BMP180;23057;48.554;14.454;2023-01-15T11:55:58;92502.00;;;15.70
41940;BMP180;23057;48.554;14.454;2023-01-15T11:58:53;92492.00;;;15.70
41940;BMP180;23057;48.554;14.454;2023-01-15T12:01:38;92481.00;;;15.70
41940;BMP180;23057;48.554;14.454;2023-01-15T12:07:12;92485.00;;;15.70
41940;BMP180;23057;48.554;14.454;2023-01-15T12:10:01;92480.00;;;15.70
41940;BMP180;23057;48.554;14.454;2023-01-15T12:12:37;92480.00;;;15.70
41940;BMP180;23057;48.554;14.454;2023-01-15T12:30:35;92497.00;;;15.70
41940;BMP180;23057;48.554;14.454;2023-01-15T12:33:59;92508.00;;;15.60
41940;BMP180;23057;48.554;14.454;2023-01-15T12:36:48;92513.00;;;15.60
41940;BMP180;23057;48.554;14.454;2023-01-15T12:39:29;92512.00;;;15.50
41940;BMP180;23057;48.554;14.454;2023-01-15T12:42:07;92526.00;;;15.50
41940;BMP180;23057;48.554;14.454;2023-01-15T12:45:06;92528.00;;;15.40
41940;BMP180;23057;48.554;14.454;2023-01-15T12:47:47;92525.00;;;15.40
41940;BMP180;23057;48.554;14.454;2023-01-15T12:53:47;92522.00;;;15.20
41940;BMP180;23057;48.554;14.454;2023-01-15T12:56:44;92528.00;;;15.10
41940;BMP180;23057;48.554;14.454;2023-01-15T12:59:32;92537.00;;;15.10
41940;BMP180;23057;48.554;14.454;2023-01-15T13:05:15;92569.00;;;15.10
41940;BMP180;23057;48.554;14.454;2023-01-15T13:07:50;92586.00;;;15.10
41940;BMP180;23057;48.554;14.454;2023-01-15T13:10:27;92598.00;;;15.10
41940;BMP180;23057;48.554;14.454;2023-01-15T13:13:17;92602.00;;;15.00
41940;BMP180;23057;48.554;14.454;2023-01-15T13:16:07;92611.00;;;14.90
41940;BMP180;23057;48.554;14.454;2023-01-15T13:21:47;92638.00;;;14.60
41940;BMP180;23057;48.554;14.454;2023-01-15T13:36:22;92681.00;;;14.20
41940;BMP180;23057;48.554;14.454;2023-01-15T13:39:01;92679.00;;;14.20
41940;BMP180;23057;48.554;14.454;2023-01-15T13:41:34;92686.00;;;14.10
41940;BMP180;23057;48.554;14.454;2023-01-15T13:44:29;92701.00;;;14.10
41940;BMP180;23057;48.554;14.454;2023-01-15T13:47:07;92716.00;;;14.00
41940;BMP180;23057;48.554;14.454;2023-01-15T13:49:49;92723.00;;;13.90
41940;BMP180;23057;48.554;14.454;2023-01-15T13:52:30;92723.00;;;13.80
41940;BMP180;23057;48.554;14.454;2023-01-15T13:55:20;92732.00;;;13.70
41940;BMP180;23057;48.554;14.454;2023-01-15T13:57:59;92748.00;;;13.60
41940;BMP180;23057;48.554;14.454;2023-01-15T14:00:34;92753.00;;;13.40
41940;BMP180;23057;48.554;14.454;2023-01-15T14:03:28;92766.00;;;13.30
41940;BMP180;23057;48.554;14.454;2023-01-15T14:06:06;92769.00;;;13.20
41940;BMP180;23057;48.554;14.454;2023-01-15T14:08:41;92775.00;;;13.20
41940;BMP180;23057;48.554;14.454;2023-01-15T14:11:36;92785.00;;;13.20
41940;BMP180;23057;48.554;14.454;2023-01-15T14:22:52;92803.00;;;12.90
41940;BMP180;23057;48.554;14.454;2023-01-15T14:35:12;92824.00;;;12.80
41940;BMP180;23057;48.554;14.454;2023-01-15T14:37:56;92839.00;;;12.70
41940;BMP180;23057;48.554;14.454;2023-01-15T14:40:32;92843.00;;;12.70
41940;BMP180;23057;48.554;14.454;2023-01-15T14:43:12;92849.00;;;12.60
41940;BMP180;23057;48.554;14.454;2023-01-15T14:45:48;92857.00;;;12.60
41940;BMP180;23057;48.554;14.454;2023-01-15T14:51:11;92867.00;;;12.60
41940;BMP180;23057;48.554;14.454;2023-01-15T14:53:50;92861.00;;;12.50
41940;BMP180;23057;48.554;14.454;2023-01-15T14:56:30;92871.00;;;12.50
41940;BMP180;23057;48.554;14.454;2023-01-15T14:59:15;92885.00;;;12.40
41940;BMP180;23057;48.554;14.454;2023-01-15T15:01:56;92881.00;;;12.30
41940;BMP180;23057;48.554;14.454;2023-01-15T15:04:49;92906.00;;;12.30
41940;BMP180;23057;48.554;14.454;2023-01-15T15:07:25;92906.00;;;12.20
41940;BMP180;23057;48.554;14.454;2023-01-15T15:12:57;92903.00;;;12.10
41940;BMP180;23057;48.554;14.454;2023-01-15T15:18:53;92924.00;;;11.90
41940;BMP180;23057;48.554;14.454;2023-01-15T15:21:34;92927.00;;;11.90
41940;BMP180;23057;48.554;14.454;2023-01-15T15:24:11;92936.00;;;11.90
41940;BMP180;23057;48.554;14.454;2023-01-15T15:26:48;92942.00;;;11.80
41940;BMP180;23057;48.554;14.454;2023-01-15T15:29:20;92941.00;;;11.80
41940;BMP180;23057;48.554;14.454;2023-01-15T15:31:53;92943.00;;;11.70
41940;BMP180;23057;48.554;14.454;2023-01-15T15:34:37;92945.00;;;11.70
41940;BMP180;23057;48.554;14.454;2023-01-15T15:37:18;92951.00;;;11.70
41940;BMP180;23057;48.554;14.454;2023-01-15T15:40:02;92964.00;;;11.70
41940;BMP180;23057;48.554;14.454;2023-01-15T15:43:10;92967.00;;;11.70
41940;BMP180;23057;48.554;14.454;2023-01-15T15:46:03;92970.00;;;11.70
41940;BMP180;23057;48.554;14.454;2023-01-15T15:49:12;92968.00;;;11.70
41940;BMP180;23057;48.554;14.454;2023-01-15T15:51:46;92974.00;;;11.70
41940;BMP180;23057;48.554;14.454;2023-01-15T15:54:23;92972.00;;;11.60
41940;BMP180;23057;48.554;14.454;2023-01-15T15:57:10;92985.00;;;11.60
41940;BMP180;23057;48.554;14.454;2023-01-15T15:59:47;92980.00;;;11.60
41940;BMP180;23057;48.554;14.454;2023-01-15T16:02:29;92987.00;;;11.60
41940;BMP180;23057;48.554;14.454;2023-01-15T16:05:25;92990.00;;;11.50
41940;BMP180;23057;48.554;14.454;2023-01-15T16:08:16;92995.00;;;11.40
41940;BMP180;23057;48.554;14.454;2023-01-15T16:10:50;92992.00;;;11.40
41940;BMP180;23057;48.554;14.454;2023-01-15T16:13:27;92996.00;;;11.40
41940;BMP180;23057;48.554;14.454;2023-01-15T16:16:02;92999.00;;;11.40
41940;BMP180;23057;48.554;14.454;2023-01-15T16:18:42;93001.00;;;11.50
41940;BMP180;23057;48.554;14.454;2023-01-15T16:24:26;93010.00;;;11.40
41940;BMP180;23057;48.554;14.454;2023-01-15T16:27:00;93006.00;;;11.40
41940;BMP180;23057;48.554;14.454;2023-01-15T16:29:39;93010.00;;;11.30
41940;BMP180;23057;48.554;14.454;2023-01-15T16:32:11;93001.00;;;11.30
41940;BMP180;23057;48.554;14.454;2023-01-15T16:34:43;93011.00;;;11.20
41940;BMP180;23057;48.554;14.454;2023-01-15T16:37:27;93006.00;;;11.20
41940;BMP180;23057;48.554;14.454;2023-01-15T16:40:04;93011.00;;;11.20
41940;BMP180;23057;48.554;14.454;2023-01-15T16:42:38;93013.00;;;11.10
41940;BMP180;23057;48.554;14.454;2023-01-15T16:45:24;93016.00;;;11.00
41940;BMP180;23057;48.554;14.454;2023-01-15T16:48:10;93026.00;;;10.90